AFL148 ULLI-ULAA
Flight info
| Callsign | AFL148 |
|---|---|
| Flight time | 1h 9m |
| Altitude | 39000 |
| Route | PETAP1A PETAP T821 MAKOG MAKOG3M |
| Aircraft | A20N/M-SDE2E3FGHIRWXY/LB1 |
Departure
| Time | 2026-05-06 08:52 |
|---|---|
| Airport | Pulkovo Airport (ULLI) |
Arrival
| Time | 2026-05-06 10:02 |
|---|---|
| Airport | Talagi Airport (ULAA) |
| Time | Latitude | Longitude | Altitude | Speed | Heading |
|---|---|---|---|---|---|
| 2026-05-06 08:31 | 59.80113 | 30.26494 | 86 ft | 0 kts | 287° |
| 2026-05-06 08:48 | 59.80115 | 30.26482 | 86 ft | 3 kts | 287° |
| 2026-05-06 08:48 | 59.80134 | 30.26386 | 86 ft | 9 kts | 320° |
| 2026-05-06 08:48 | 59.80231 | 30.26408 | 86 ft | 18 kts | 17° |
| 2026-05-06 08:48 | 59.80371 | 30.26472 | 86 ft | 21 kts | 1° |
| 2026-05-06 08:49 | 59.80435 | 30.26596 | 86 ft | 14 kts | 94° |
| 2026-05-06 08:49 | 59.80401 | 30.26832 | 86 ft | 20 kts | 106° |
| 2026-05-06 08:49 | 59.80355 | 30.27143 | 86 ft | 26 kts | 107° |
| 2026-05-06 08:49 | 59.80300 | 30.27516 | 86 ft | 30 kts | 105° |
| 2026-05-06 08:50 | 59.80236 | 30.27943 | 86 ft | 34 kts | 105° |
| 2026-05-06 08:50 | 59.80170 | 30.28384 | 86 ft | 29 kts | 107° |
| 2026-05-06 08:50 | 59.80189 | 30.28622 | 86 ft | 14 kts | 50° |
| 2026-05-06 08:50 | 59.80256 | 30.28778 | 86 ft | 15 kts | 49° |
| 2026-05-06 08:51 | 59.80337 | 30.28816 | 86 ft | 14 kts | 295° |
| 2026-05-06 08:51 | 59.80348 | 30.28724 | 86 ft | 0 kts | 287° |
| 2026-05-06 08:51 | 59.80349 | 30.28719 | 86 ft | 2 kts | 287° |
| 2026-05-06 08:52 | 59.80424 | 30.28223 | 86 ft | 76 kts | 285° |
| 2026-05-06 08:52 | 59.80637 | 30.26796 | 86 ft | 139 kts | 286° |
| 2026-05-06 08:52 | 59.80955 | 30.24675 | 349 ft | 169 kts | 287° |
| 2026-05-06 08:52 | 59.81279 | 30.22430 | 1008 ft | 176 kts | 287° |
| 2026-05-06 08:53 | 59.81632 | 30.20006 | 1604 ft | 194 kts | 287° |
| 2026-05-06 08:53 | 59.82026 | 30.17348 | 2273 ft | 210 kts | 287° |
| 2026-05-06 08:53 | 59.82464 | 30.14468 | 2856 ft | 230 kts | 287° |
| 2026-05-06 08:53 | 59.82933 | 30.11292 | 3525 ft | 247 kts | 287° |
| 2026-05-06 08:54 | 59.83406 | 30.08034 | 4476 ft | 251 kts | 287° |
| 2026-05-06 08:54 | 59.83882 | 30.04741 | 5465 ft | 253 kts | 287° |
| 2026-05-06 08:54 | 59.84375 | 30.01382 | 6466 ft | 255 kts | 288° |
| 2026-05-06 08:54 | 59.84936 | 29.98374 | 7363 ft | 258 kts | 294° |
| 2026-05-06 08:55 | 59.85782 | 29.95250 | 8356 ft | 259 kts | 301° |
| 2026-05-06 08:55 | 59.86753 | 29.92311 | 9312 ft | 261 kts | 302° |
| 2026-05-06 08:55 | 59.87763 | 29.89330 | 10266 ft | 262 kts | 301° |
| 2026-05-06 08:55 | 59.88804 | 29.86237 | 10803 ft | 278 kts | 301° |
| 2026-05-06 08:56 | 59.89865 | 29.83047 | 11457 ft | 283 kts | 300° |
| 2026-05-06 08:56 | 59.90956 | 29.79802 | 11894 ft | 283 kts | 302° |
| 2026-05-06 08:56 | 59.92414 | 29.77115 | 11988 ft | 294 kts | 324° |
| 2026-05-06 08:56 | 59.94373 | 29.75818 | 11981 ft | 307 kts | 347° |
| 2026-05-06 08:57 | 59.96548 | 29.75870 | 11980 ft | 315 kts | 356° |
| 2026-05-06 08:57 | 59.98713 | 29.76149 | 11966 ft | 314 kts | 356° |
| 2026-05-06 08:57 | 60.00917 | 29.76434 | 11958 ft | 314 kts | 356° |
| 2026-05-06 08:57 | 60.03072 | 29.76701 | 11938 ft | 313 kts | 356° |
| 2026-05-06 08:58 | 60.05251 | 29.76957 | 11945 ft | 313 kts | 356° |
| 2026-05-06 08:58 | 60.07420 | 29.77212 | 11950 ft | 313 kts | 356° |
| 2026-05-06 08:58 | 60.09595 | 29.77464 | 11949 ft | 313 kts | 356° |
| 2026-05-06 08:58 | 60.11764 | 29.77713 | 11950 ft | 311 kts | 356° |
| 2026-05-06 08:59 | 60.13927 | 29.77961 | 11945 ft | 311 kts | 356° |
| 2026-05-06 08:59 | 60.16086 | 29.78207 | 12036 ft | 316 kts | 356° |
| 2026-05-06 08:59 | 60.18273 | 29.78461 | 12712 ft | 321 kts | 356° |
| 2026-05-06 08:59 | 60.20495 | 29.78732 | 13582 ft | 322 kts | 354° |
| 2026-05-06 09:00 | 60.22740 | 29.78996 | 14308 ft | 326 kts | 353° |
| 2026-05-06 09:00 | 60.24995 | 29.79246 | 15003 ft | 332 kts | 353° |
| 2026-05-06 09:00 | 60.27329 | 29.79503 | 15701 ft | 337 kts | 353° |
| 2026-05-06 09:00 | 60.29673 | 29.79770 | 16411 ft | 341 kts | 353° |
| 2026-05-06 09:01 | 60.32061 | 29.80282 | 17054 ft | 358 kts | 5° |
| 2026-05-06 09:01 | 60.34388 | 29.82609 | 17627 ft | 390 kts | 32° |
| 2026-05-06 09:01 | 60.36185 | 29.86812 | 18247 ft | 408 kts | 52° |
| 2026-05-06 09:01 | 60.37640 | 29.91722 | 18832 ft | 415 kts | 57° |
| 2026-05-06 09:02 | 60.39044 | 29.96866 | 19435 ft | 421 kts | 57° |
| 2026-05-06 09:02 | 60.40471 | 30.02053 | 20042 ft | 425 kts | 56° |
| 2026-05-06 09:02 | 60.41943 | 30.07257 | 20627 ft | 430 kts | 55° |
| 2026-05-06 09:02 | 60.43452 | 30.12473 | 21214 ft | 434 kts | 54° |
| 2026-05-06 09:03 | 60.44999 | 30.17755 | 21771 ft | 438 kts | 54° |
| 2026-05-06 09:03 | 60.46579 | 30.23130 | 22332 ft | 443 kts | 54° |
| 2026-05-06 09:03 | 60.48162 | 30.28530 | 22885 ft | 447 kts | 54° |
| 2026-05-06 09:03 | 60.49210 | 30.32113 | 23255 ft | 449 kts | 54° |
| 2026-05-06 09:04 | 60.54311 | 30.49613 | 25113 ft | 456 kts | 54° |
| 2026-05-06 09:04 | 60.55913 | 30.55148 | 25624 ft | 459 kts | 54° |
| 2026-05-06 09:05 | 60.57517 | 30.60680 | 26098 ft | 463 kts | 53° |
| 2026-05-06 09:05 | 60.59159 | 30.66367 | 26566 ft | 466 kts | 55° |
| 2026-05-06 09:05 | 60.60799 | 30.72057 | 27007 ft | 470 kts | 54° |
| 2026-05-06 09:05 | 60.62460 | 30.77837 | 27448 ft | 474 kts | 54° |
| 2026-05-06 09:06 | 60.63544 | 30.81627 | 27737 ft | 476 kts | 54° |
| 2026-05-06 09:06 | 60.65785 | 30.89452 | 28301 ft | 480 kts | 54° |
| 2026-05-06 09:06 | 60.67444 | 30.95263 | 28737 ft | 482 kts | 54° |
| 2026-05-06 09:06 | 60.69134 | 31.01204 | 29157 ft | 485 kts | 55° |
| 2026-05-06 09:07 | 60.70828 | 31.07171 | 29569 ft | 487 kts | 54° |
| 2026-05-06 09:07 | 60.72522 | 31.13149 | 29973 ft | 490 kts | 54° |
| 2026-05-06 09:07 | 60.74223 | 31.19160 | 30348 ft | 492 kts | 54° |
| 2026-05-06 09:07 | 60.75930 | 31.25220 | 30704 ft | 495 kts | 54° |
| 2026-05-06 09:08 | 60.77644 | 31.31313 | 31079 ft | 497 kts | 54° |
| 2026-05-06 09:08 | 60.79340 | 31.37364 | 31434 ft | 499 kts | 54° |
| 2026-05-06 09:08 | 60.81071 | 31.43548 | 31788 ft | 501 kts | 55° |
| 2026-05-06 09:08 | 60.82794 | 31.49737 | 32132 ft | 502 kts | 55° |
| 2026-05-06 09:09 | 60.84520 | 31.55939 | 32458 ft | 504 kts | 56° |
| 2026-05-06 09:09 | 60.86250 | 31.62174 | 32747 ft | 505 kts | 56° |
| 2026-05-06 09:09 | 60.87971 | 31.68395 | 32994 ft | 506 kts | 56° |
| 2026-05-06 09:09 | 60.89699 | 31.74651 | 33223 ft | 508 kts | 57° |
| 2026-05-06 09:10 | 60.91425 | 31.80932 | 33436 ft | 509 kts | 57° |
| 2026-05-06 09:10 | 60.93174 | 31.87313 | 33681 ft | 509 kts | 57° |
| 2026-05-06 09:10 | 60.94951 | 31.93510 | 33965 ft | 506 kts | 54° |
| 2026-05-06 09:10 | 60.96896 | 31.99445 | 34262 ft | 502 kts | 50° |
| 2026-05-06 09:11 | 60.99028 | 32.05085 | 34532 ft | 497 kts | 45° |
| 2026-05-06 09:11 | 61.01315 | 32.10321 | 34793 ft | 493 kts | 40° |
| 2026-05-06 09:11 | 61.03704 | 32.15222 | 35075 ft | 490 kts | 38° |
| 2026-05-06 09:11 | 61.06151 | 32.20058 | 35343 ft | 488 kts | 38° |
| 2026-05-06 09:12 | 61.08600 | 32.24887 | 35573 ft | 488 kts | 38° |
| 2026-05-06 09:12 | 61.11038 | 32.29727 | 35796 ft | 487 kts | 39° |
| 2026-05-06 09:12 | 61.13456 | 32.34573 | 35992 ft | 486 kts | 39° |
| 2026-05-06 09:12 | 61.15871 | 32.39446 | 36226 ft | 485 kts | 39° |
| 2026-05-06 09:13 | 61.18270 | 32.44307 | 36417 ft | 485 kts | 39° |
| 2026-05-06 09:13 | 61.20678 | 32.49204 | 36595 ft | 485 kts | 39° |
| 2026-05-06 09:13 | 61.23043 | 32.54025 | 36827 ft | 484 kts | 39° |
| 2026-05-06 09:13 | 61.25433 | 32.58910 | 36997 ft | 483 kts | 40° |
| 2026-05-06 09:14 | 61.27814 | 32.63762 | 37174 ft | 483 kts | 39° |
| 2026-05-06 09:14 | 61.30250 | 32.68613 | 37342 ft | 483 kts | 40° |
| 2026-05-06 09:14 | 61.32659 | 32.73378 | 37457 ft | 483 kts | 40° |
| 2026-05-06 09:14 | 61.35070 | 32.78153 | 37589 ft | 483 kts | 40° |
| 2026-05-06 09:15 | 61.37530 | 32.83044 | 37779 ft | 483 kts | 40° |
| 2026-05-06 09:15 | 61.39928 | 32.87839 | 37940 ft | 482 kts | 40° |
| 2026-05-06 09:15 | 61.42331 | 32.92655 | 38071 ft | 482 kts | 40° |
| 2026-05-06 09:15 | 61.44719 | 32.97454 | 38230 ft | 482 kts | 40° |
| 2026-05-06 09:16 | 61.47079 | 33.02450 | 38375 ft | 484 kts | 44° |
| 2026-05-06 09:16 | 61.49295 | 33.07786 | 38504 ft | 486 kts | 48° |
| 2026-05-06 09:16 | 61.51392 | 33.13311 | 38653 ft | 486 kts | 49° |
| 2026-05-06 09:16 | 61.53453 | 33.18898 | 38790 ft | 486 kts | 50° |
| 2026-05-06 09:17 | 61.55495 | 33.24469 | 38842 ft | 488 kts | 50° |
| 2026-05-06 09:17 | 61.59609 | 33.35680 | 38851 ft | 488 kts | 49° |
| 2026-05-06 09:18 | 61.63735 | 33.46926 | 38826 ft | 488 kts | 50° |
| 2026-05-06 09:18 | 61.67851 | 33.58172 | 38836 ft | 488 kts | 50° |
| 2026-05-06 09:19 | 61.71960 | 33.69456 | 38831 ft | 489 kts | 50° |
| 2026-05-06 09:19 | 61.76074 | 33.80814 | 38821 ft | 489 kts | 50° |
| 2026-05-06 09:20 | 61.80191 | 33.92237 | 38825 ft | 488 kts | 51° |
| 2026-05-06 09:20 | 61.84268 | 34.03606 | 38815 ft | 488 kts | 50° |
| 2026-05-06 09:21 | 61.88549 | 34.14645 | 38847 ft | 487 kts | 44° |
| 2026-05-06 09:21 | 61.93417 | 34.24450 | 38824 ft | 484 kts | 37° |
| 2026-05-06 09:22 | 61.98571 | 34.33579 | 38814 ft | 484 kts | 35° |
| 2026-05-06 09:22 | 62.03720 | 34.42695 | 38836 ft | 484 kts | 36° |
| 2026-05-06 09:23 | 62.08845 | 34.51883 | 38813 ft | 484 kts | 36° |
| 2026-05-06 09:23 | 62.13933 | 34.61070 | 38807 ft | 483 kts | 36° |
| 2026-05-06 09:24 | 62.19027 | 34.70307 | 38799 ft | 482 kts | 37° |
| 2026-05-06 09:24 | 62.24110 | 34.79575 | 38792 ft | 483 kts | 37° |
| 2026-05-06 09:25 | 62.29218 | 34.88927 | 38794 ft | 483 kts | 37° |
| 2026-05-06 09:25 | 62.34271 | 34.98224 | 38792 ft | 483 kts | 37° |
| 2026-05-06 09:26 | 62.39365 | 35.07642 | 38786 ft | 482 kts | 37° |
| 2026-05-06 09:26 | 62.44378 | 35.17065 | 38776 ft | 482 kts | 38° |
| 2026-05-06 09:27 | 62.49370 | 35.26558 | 38777 ft | 481 kts | 38° |
| 2026-05-06 09:27 | 62.54379 | 35.36126 | 38779 ft | 481 kts | 38° |
| 2026-05-06 09:28 | 62.59358 | 35.45673 | 38774 ft | 480 kts | 38° |
| 2026-05-06 09:28 | 62.64336 | 35.55252 | 38771 ft | 479 kts | 38° |
| 2026-05-06 09:29 | 62.69263 | 35.64776 | 38776 ft | 478 kts | 38° |
| 2026-05-06 09:29 | 62.74236 | 35.74438 | 38779 ft | 479 kts | 39° |
| 2026-05-06 09:30 | 62.79168 | 35.84056 | 38770 ft | 479 kts | 39° |
| 2026-05-06 09:30 | 62.84081 | 35.93694 | 38764 ft | 478 kts | 39° |
| 2026-05-06 09:31 | 62.89005 | 36.03388 | 38767 ft | 478 kts | 39° |
| 2026-05-06 09:31 | 62.93958 | 36.13049 | 38746 ft | 478 kts | 39° |
| 2026-05-06 09:32 | 62.98898 | 36.22716 | 38741 ft | 477 kts | 39° |
| 2026-05-06 09:32 | 63.03840 | 36.32442 | 38735 ft | 477 kts | 39° |
| 2026-05-06 09:33 | 63.08773 | 36.42198 | 38737 ft | 477 kts | 39° |
| 2026-05-06 09:33 | 63.13710 | 36.52007 | 38726 ft | 478 kts | 39° |
| 2026-05-06 09:34 | 63.18599 | 36.61784 | 38729 ft | 479 kts | 39° |
| 2026-05-06 09:34 | 63.23227 | 36.72389 | 38729 ft | 482 kts | 47° |
| 2026-05-06 09:35 | 63.27505 | 36.83828 | 38656 ft | 485 kts | 49° |
| 2026-05-06 09:35 | 63.29640 | 36.89624 | 38010 ft | 489 kts | 49° |
| 2026-05-06 09:35 | 63.31764 | 36.95390 | 37379 ft | 491 kts | 49° |
| 2026-05-06 09:35 | 63.33933 | 37.01271 | 36746 ft | 494 kts | 49° |
| 2026-05-06 09:36 | 63.36105 | 37.07159 | 36058 ft | 498 kts | 49° |
| 2026-05-06 09:36 | 63.38302 | 37.13127 | 35379 ft | 501 kts | 48° |
| 2026-05-06 09:36 | 63.40506 | 37.19128 | 34727 ft | 502 kts | 48° |
| 2026-05-06 09:36 | 63.42689 | 37.25084 | 34101 ft | 504 kts | 48° |
| 2026-05-06 09:37 | 63.44899 | 37.31140 | 33401 ft | 507 kts | 47° |
| 2026-05-06 09:37 | 63.47117 | 37.37235 | 32776 ft | 509 kts | 47° |
| 2026-05-06 09:37 | 63.49352 | 37.43382 | 32132 ft | 512 kts | 47° |
| 2026-05-06 09:37 | 63.51568 | 37.49499 | 31594 ft | 511 kts | 47° |
| 2026-05-06 09:38 | 63.53796 | 37.55663 | 31143 ft | 508 kts | 47° |
| 2026-05-06 09:38 | 63.55978 | 37.61724 | 30685 ft | 505 kts | 47° |
| 2026-05-06 09:38 | 63.58190 | 37.67878 | 30237 ft | 502 kts | 48° |
| 2026-05-06 09:38 | 63.60335 | 37.73863 | 29758 ft | 500 kts | 48° |
| 2026-05-06 09:39 | 63.62496 | 37.79899 | 29326 ft | 497 kts | 49° |
| 2026-05-06 09:39 | 63.64650 | 37.85944 | 28890 ft | 493 kts | 48° |
| 2026-05-06 09:39 | 63.66777 | 37.91934 | 28443 ft | 489 kts | 48° |
| 2026-05-06 09:39 | 63.68871 | 37.97838 | 27969 ft | 485 kts | 49° |
| 2026-05-06 09:40 | 63.70954 | 38.03724 | 27516 ft | 481 kts | 49° |
| 2026-05-06 09:40 | 63.73026 | 38.09593 | 27080 ft | 476 kts | 49° |
| 2026-05-06 09:40 | 63.77087 | 38.21158 | 26167 ft | 469 kts | 48° |
| 2026-05-06 09:41 | 63.79098 | 38.26907 | 25707 ft | 466 kts | 48° |
| 2026-05-06 09:41 | 63.81083 | 38.32595 | 25286 ft | 461 kts | 48° |
| 2026-05-06 09:41 | 63.83062 | 38.38273 | 24844 ft | 458 kts | 48° |
| 2026-05-06 09:41 | 63.85007 | 38.43869 | 24432 ft | 454 kts | 48° |
| 2026-05-06 09:42 | 63.86944 | 38.49460 | 24004 ft | 450 kts | 48° |
| 2026-05-06 09:42 | 63.88841 | 38.54941 | 23617 ft | 445 kts | 49° |
| 2026-05-06 09:42 | 63.90733 | 38.60430 | 23239 ft | 440 kts | 49° |
| 2026-05-06 09:42 | 63.92593 | 38.65844 | 22849 ft | 435 kts | 49° |
| 2026-05-06 09:43 | 63.94432 | 38.71195 | 22491 ft | 429 kts | 50° |
| 2026-05-06 09:43 | 63.96263 | 38.76543 | 22133 ft | 423 kts | 50° |
| 2026-05-06 09:43 | 63.98032 | 38.81723 | 21746 ft | 417 kts | 49° |
| 2026-05-06 09:43 | 63.99791 | 38.86881 | 21413 ft | 412 kts | 50° |
| 2026-05-06 09:44 | 64.01530 | 38.92001 | 21043 ft | 406 kts | 50° |
| 2026-05-06 09:44 | 64.03223 | 38.96996 | 20641 ft | 400 kts | 50° |
| 2026-05-06 09:44 | 64.04909 | 39.01991 | 20281 ft | 395 kts | 51° |
| 2026-05-06 09:44 | 64.06428 | 39.07135 | 19898 ft | 391 kts | 57° |
| 2026-05-06 09:45 | 64.07697 | 39.12535 | 19514 ft | 386 kts | 62° |
| 2026-05-06 09:45 | 64.08850 | 39.18029 | 19120 ft | 381 kts | 63° |
| 2026-05-06 09:45 | 64.09969 | 39.23499 | 18684 ft | 377 kts | 63° |
| 2026-05-06 09:45 | 64.11075 | 39.28906 | 18216 ft | 374 kts | 63° |
| 2026-05-06 09:46 | 64.12158 | 39.34188 | 17734 ft | 372 kts | 62° |
| 2026-05-06 09:46 | 64.13258 | 39.39543 | 17276 ft | 368 kts | 62° |
| 2026-05-06 09:46 | 64.14326 | 39.44745 | 16838 ft | 365 kts | 62° |
| 2026-05-06 09:46 | 64.15398 | 39.49963 | 16357 ft | 362 kts | 62° |
| 2026-05-06 09:47 | 64.16460 | 39.55147 | 15897 ft | 359 kts | 62° |
| 2026-05-06 09:47 | 64.17515 | 39.60304 | 15422 ft | 356 kts | 62° |
| 2026-05-06 09:47 | 64.18552 | 39.65391 | 14989 ft | 353 kts | 63° |
| 2026-05-06 09:47 | 64.19585 | 39.70470 | 14496 ft | 351 kts | 63° |
| 2026-05-06 09:48 | 64.20611 | 39.75525 | 14030 ft | 349 kts | 63° |
| 2026-05-06 09:48 | 64.21619 | 39.80499 | 13572 ft | 347 kts | 63° |
| 2026-05-06 09:48 | 64.22632 | 39.85509 | 13103 ft | 345 kts | 63° |
| 2026-05-06 09:48 | 64.23629 | 39.90461 | 12591 ft | 343 kts | 63° |
| 2026-05-06 09:49 | 64.24634 | 39.95465 | 12107 ft | 342 kts | 63° |
| 2026-05-06 09:49 | 64.25621 | 40.00390 | 11642 ft | 340 kts | 63° |
| 2026-05-06 09:49 | 64.26598 | 40.05271 | 11161 ft | 339 kts | 63° |
| 2026-05-06 09:49 | 64.27576 | 40.10172 | 10713 ft | 337 kts | 63° |
| 2026-05-06 09:50 | 64.28539 | 40.15014 | 10245 ft | 335 kts | 63° |
| 2026-05-06 09:50 | 64.29509 | 40.19903 | 9836 ft | 332 kts | 63° |
| 2026-05-06 09:50 | 64.30444 | 40.24631 | 9574 ft | 325 kts | 63° |
| 2026-05-06 09:50 | 64.31379 | 40.29365 | 9238 ft | 319 kts | 63° |
| 2026-05-06 09:51 | 64.32284 | 40.33960 | 8899 ft | 315 kts | 63° |
| 2026-05-06 09:51 | 64.33182 | 40.38522 | 8556 ft | 310 kts | 63° |
| 2026-05-06 09:51 | 64.34066 | 40.43019 | 8120 ft | 311 kts | 63° |
| 2026-05-06 09:51 | 64.34950 | 40.47531 | 7667 ft | 311 kts | 63° |
| 2026-05-06 09:52 | 64.35836 | 40.52060 | 7304 ft | 308 kts | 63° |
| 2026-05-06 09:52 | 64.36700 | 40.56500 | 6942 ft | 305 kts | 63° |
| 2026-05-06 09:52 | 64.37569 | 40.60961 | 6597 ft | 300 kts | 63° |
| 2026-05-06 09:52 | 64.38411 | 40.65306 | 6288 ft | 296 kts | 64° |
| 2026-05-06 09:53 | 64.39239 | 40.69574 | 5953 ft | 293 kts | 64° |
| 2026-05-06 09:53 | 64.40059 | 40.73821 | 5652 ft | 290 kts | 64° |
| 2026-05-06 09:53 | 64.40874 | 40.78040 | 5331 ft | 288 kts | 64° |
| 2026-05-06 09:53 | 64.41691 | 40.82277 | 5008 ft | 287 kts | 64° |
| 2026-05-06 09:54 | 64.42498 | 40.86482 | 4669 ft | 286 kts | 64° |
| 2026-05-06 09:54 | 64.43295 | 40.90632 | 4366 ft | 285 kts | 64° |
| 2026-05-06 09:54 | 64.44093 | 40.94809 | 4044 ft | 282 kts | 64° |
| 2026-05-06 09:54 | 64.44880 | 40.98947 | 3749 ft | 279 kts | 64° |
| 2026-05-06 09:55 | 64.45658 | 41.03037 | 3461 ft | 278 kts | 63° |
| 2026-05-06 09:55 | 64.46423 | 41.07061 | 3268 ft | 270 kts | 63° |
| 2026-05-06 09:55 | 64.47222 | 41.10897 | 3223 ft | 253 kts | 50° |
| 2026-05-06 09:55 | 64.48495 | 41.13251 | 3159 ft | 224 kts | 7° |
| 2026-05-06 09:56 | 64.49934 | 41.13134 | 3124 ft | 196 kts | 330° |
| 2026-05-06 09:56 | 64.51097 | 41.11808 | 3120 ft | 185 kts | 326° |
| 2026-05-06 09:56 | 64.52252 | 41.10518 | 3090 ft | 180 kts | 328° |
| 2026-05-06 09:56 | 64.53352 | 41.09418 | 2988 ft | 168 kts | 329° |
| 2026-05-06 09:57 | 64.54404 | 41.08423 | 2828 ft | 157 kts | 328° |
| 2026-05-06 09:57 | 64.55379 | 41.07527 | 2644 ft | 148 kts | 329° |
| 2026-05-06 09:57 | 64.56313 | 41.06687 | 2387 ft | 140 kts | 328° |
| 2026-05-06 09:57 | 64.57192 | 41.05903 | 2170 ft | 129 kts | 328° |
| 2026-05-06 09:58 | 64.57986 | 41.05118 | 1996 ft | 118 kts | 311° |
| 2026-05-06 09:58 | 64.58337 | 41.03546 | 2008 ft | 115 kts | 281° |
| 2026-05-06 09:58 | 64.58501 | 41.01693 | 1997 ft | 118 kts | 277° |
| 2026-05-06 09:58 | 64.58648 | 40.99810 | 1979 ft | 118 kts | 276° |
| 2026-05-06 09:59 | 64.58768 | 40.97910 | 1969 ft | 118 kts | 275° |
| 2026-05-06 09:59 | 64.58869 | 40.96027 | 1935 ft | 119 kts | 275° |
| 2026-05-06 09:59 | 64.58965 | 40.94113 | 1769 ft | 118 kts | 274° |
| 2026-05-06 09:59 | 64.59051 | 40.92228 | 1609 ft | 118 kts | 276° |
| 2026-05-06 10:00 | 64.59141 | 40.90319 | 1447 ft | 118 kts | 274° |
| 2026-05-06 10:00 | 64.59228 | 40.88435 | 1292 ft | 117 kts | 275° |
| 2026-05-06 10:00 | 64.59316 | 40.86566 | 1132 ft | 117 kts | 272° |
| 2026-05-06 10:00 | 64.59403 | 40.84700 | 975 ft | 117 kts | 275° |
| 2026-05-06 10:01 | 64.59490 | 40.82814 | 806 ft | 116 kts | 277° |
| 2026-05-06 10:01 | 64.59576 | 40.80951 | 641 ft | 116 kts | 278° |
| 2026-05-06 10:01 | 64.59666 | 40.79103 | 486 ft | 115 kts | 277° |
| 2026-05-06 10:01 | 64.59753 | 40.77261 | 325 ft | 116 kts | 279° |
| 2026-05-06 10:02 | 64.59843 | 40.75394 | 177 ft | 117 kts | 277° |
| 2026-05-06 10:02 | 64.59933 | 40.73525 | 40 ft | 106 kts | 275° |
| 2026-05-06 10:02 | 64.59991 | 40.72414 | 38 ft | 42 kts | 277° |
| 2026-05-06 10:02 | 64.60020 | 40.71780 | 38 ft | 30 kts | 277° |
| 2026-05-06 10:03 | 64.60037 | 40.71428 | 38 ft | 15 kts | 275° |
| 2026-05-06 10:03 | 64.60016 | 40.71328 | 38 ft | 7 kts | 196° |
| 2026-05-06 10:03 | 64.59949 | 40.71305 | 38 ft | 12 kts | 186° |
| 2026-05-06 10:03 | 64.59856 | 40.71283 | 38 ft | 8 kts | 189° |
| 2026-05-06 10:04 | 64.59827 | 40.71176 | 38 ft | 8 kts | 218° |
| 2026-05-06 10:04 | 64.59772 | 40.71143 | 38 ft | 3 kts | 187° |